createdAt,value
2022-08-05T00:00:17.113Z,23.47
2022-08-05T00:02:51.383Z,23.44
2022-08-05T00:05:27.041Z,23.42
2022-08-05T00:08:32.977Z,23.37
2022-08-05T00:11:00.405Z,23.40
2022-08-05T00:13:38.167Z,23.34
2022-08-05T00:16:08.916Z,23.20
2022-08-05T00:18:38.016Z,23.14
2022-08-05T00:21:06.496Z,23.10
2022-08-05T00:23:46.718Z,23.13
2022-08-05T00:26:23.184Z,23.08
2022-08-05T00:28:52.143Z,23.14
2022-08-05T00:31:52.998Z,23.18
2022-08-05T00:34:54.216Z,23.23
2022-08-05T00:37:13.221Z,23.07
2022-08-05T00:39:44.572Z,23.08
2022-08-05T00:42:35.085Z,22.97
2022-08-05T00:45:03.270Z,22.97
2022-08-05T00:47:53.318Z,22.93
2022-08-05T00:50:20.971Z,22.77
2022-08-05T00:52:49.385Z,22.77
2022-08-05T00:55:17.186Z,22.73
2022-08-05T00:57:58.581Z,22.66
2022-08-05T01:00:27.748Z,22.54
2022-08-05T01:02:56.148Z,22.45
2022-08-05T01:05:24.854Z,22.33
2022-08-05T01:08:42.231Z,22.28
2022-08-05T01:10:52.518Z,22.30
2022-08-05T01:13:58.403Z,22.33
2022-08-05T01:16:27.766Z,22.31
2022-08-05T01:19:01.341Z,22.27
2022-08-05T01:21:58.260Z,22.07
2022-08-05T01:25:01.198Z,21.97
2022-08-05T01:27:56.861Z,22.05
2022-08-05T01:33:08.050Z,22.02
2022-08-05T01:35:52.080Z,22.12
2022-08-05T01:38:27.074Z,22.16
2022-08-05T01:40:58.824Z,22.05
2022-08-05T01:43:29.504Z,22.02
2022-08-05T01:46:07.304Z,22.11
2022-08-05T01:48:49.656Z,22.10
2022-08-05T01:51:19.316Z,22.03
2022-08-05T01:53:57.484Z,21.99
2022-08-05T01:58:09.367Z,22.18
2022-08-05T01:59:22.603Z,22.27
2022-08-05T02:01:55.704Z,22.18
2022-08-05T02:04:29.921Z,22.07
2022-08-05T02:06:59.884Z,22.07
2022-08-05T02:09:32.038Z,21.97
2022-08-05T02:12:06.988Z,22.03
2022-08-05T02:14:44.503Z,22.14
2022-08-05T02:18:28.136Z,22.16
2022-08-05T02:20:20.631Z,22.15
2022-08-05T02:22:57.124Z,22.19
2022-08-05T02:25:33.448Z,22.23
2022-08-05T02:28:08.870Z,22.29
2022-08-05T02:30:51.678Z,22.27
2022-08-05T02:33:36.152Z,22.19
2022-08-05T02:36:10.266Z,22.26
2022-08-05T02:38:52.876Z,22.19
2022-08-05T02:41:23.538Z,22.11
2022-08-05T02:44:02.470Z,22.00
2022-08-05T02:46:35.465Z,22.00
2022-08-05T02:49:06.358Z,22.10
2022-08-05T02:52:03.080Z,22.04
2022-08-05T02:54:36.431Z,21.93
2022-08-05T02:59:55.178Z,21.85
2022-08-05T03:02:29.344Z,21.90
2022-08-05T03:05:00.011Z,21.80
2022-08-05T03:08:01.284Z,21.77
2022-08-05T03:10:21.968Z,21.77
2022-08-05T03:12:54.118Z,21.76
2022-08-05T03:15:23.647Z,21.70
2022-08-05T03:17:54.055Z,21.70
2022-08-05T03:20:25.497Z,21.67
2022-08-05T03:22:55.364Z,21.65
2022-08-05T03:25:34.137Z,21.64
2022-08-05T03:28:18.727Z,21.70
2022-08-05T03:30:50.836Z,21.70
2022-08-05T03:33:19.432Z,21.69
2022-08-05T03:35:50.128Z,21.70
2022-08-05T03:38:23.890Z,21.88
2022-08-05T03:41:08.221Z,21.90
2022-08-05T03:44:08.881Z,22.08
2022-08-05T03:46:29.717Z,22.24
2022-08-05T03:48:59.328Z,22.50
2022-08-05T03:52:39.331Z,22.58
2022-08-05T03:56:01.855Z,22.58
2022-08-05T03:57:41.279Z,22.52
2022-08-05T04:00:15.928Z,22.50
2022-08-05T04:02:58.154Z,22.59
2022-08-05T04:05:33.167Z,22.78
2022-08-05T04:08:05.788Z,23.45
2022-08-05T04:10:45.331Z,24.19
2022-08-05T04:13:13.734Z,24.68
2022-08-05T04:15:52.621Z,25.14
2022-08-05T04:18:30.524Z,25.48
2022-08-05T04:20:59.183Z,25.45
2022-08-05T04:24:06.180Z,25.77
2022-08-05T04:26:18.883Z,26.56
2022-08-05T04:28:51.836Z,27.38
2022-08-05T04:31:20.841Z,28.02
2022-08-05T04:34:17.165Z,27.94
2022-08-05T04:36:45.395Z,27.18
2022-08-05T04:39:19.357Z,27.76
2022-08-05T04:41:48.643Z,27.96
2022-08-05T04:44:29.243Z,28.01
2022-08-05T04:46:59.252Z,28.11
2022-08-05T04:49:38.522Z,28.10
2022-08-05T04:52:16.208Z,27.87
2022-08-05T04:54:45.466Z,28.94
2022-08-05T04:57:13.524Z,29.94
2022-08-05T04:59:41.946Z,31.06
2022-08-05T05:02:36.379Z,31.69
2022-08-05T05:05:02.771Z,31.89
2022-08-05T05:07:32.266Z,32.58
2022-08-05T05:10:04.486Z,32.95
2022-08-05T05:12:32.600Z,32.42
2022-08-05T05:15:03.808Z,31.70
2022-08-05T05:17:57.142Z,31.32
2022-08-05T05:20:28.502Z,30.59
2022-08-05T05:22:57.372Z,30.17
2022-08-05T05:25:32.641Z,31.11
2022-08-05T05:28:08.185Z,32.07
2022-08-05T05:30:37.430Z,33.64
2022-08-05T05:33:16.208Z,35.36
2022-08-05T05:35:47.340Z,36.73
2022-08-05T05:38:26.779Z,37.24
2022-08-05T05:40:57.296Z,37.99
2022-08-05T05:43:54.290Z,39.25
2022-08-05T05:46:17.212Z,39.51
2022-08-05T05:48:48.983Z,38.06
2022-08-05T05:51:22.292Z,37.56
2022-08-05T05:53:57.345Z,39.12
2022-08-05T05:56:32.528Z,38.31
2022-08-05T05:59:03.199Z,36.57
2022-08-05T06:01:38.251Z,38.15
2022-08-05T06:04:08.837Z,39.04
2022-08-05T06:06:42.045Z,38.72
2022-08-05T06:09:17.577Z,40.72
2022-08-05T06:11:59.290Z,38.82
2022-08-05T06:14:28.915Z,38.12
2022-08-05T06:16:57.871Z,36.06
2022-08-05T06:19:34.531Z,35.21
2022-08-05T06:22:03.390Z,34.41
2022-08-05T06:24:31.377Z,32.82
2022-08-05T06:27:01.220Z,32.05
2022-08-05T06:29:46.723Z,32.00
2022-08-05T06:32:25.825Z,31.33
2022-08-05T06:34:56.668Z,30.15
2022-08-05T06:37:55.773Z,29.81
2022-08-05T06:40:18.503Z,29.01
2022-08-05T06:42:52.628Z,29.48
2022-08-05T06:45:43.897Z,29.83
2022-08-05T06:48:44.092Z,30.11
2022-08-05T06:51:00.243Z,30.45
2022-08-05T06:53:29.468Z,30.54
2022-08-05T06:55:58.689Z,31.73
2022-08-05T06:58:34.958Z,33.38
2022-08-05T07:01:06.494Z,36.24
2022-08-05T07:03:35.317Z,35.59
2022-08-05T07:06:06.059Z,37.03
2022-08-05T07:08:47.552Z,37.81
2022-08-05T07:11:16.988Z,37.98
2022-08-05T07:14:20.678Z,39.13
2022-08-05T07:17:59.534Z,39.56
2022-08-05T07:20:32.501Z,39.64
2022-08-05T07:22:37.640Z,37.91
2022-08-05T07:25:23.980Z,37.78
2022-08-05T07:28:02.268Z,34.23
2022-08-05T07:30:39.039Z,35.04
2022-08-05T07:33:16.650Z,35.51
2022-08-05T07:36:03.319Z,37.03
2022-08-05T07:38:43.575Z,38.66
2022-08-05T07:42:09.440Z,38.82
2022-08-05T07:44:02.560Z,39.22
2022-08-05T07:46:34.404Z,39.18
2022-08-05T07:49:06.124Z,40.55
2022-08-05T07:51:40.791Z,40.26
2022-08-05T07:54:10.502Z,40.50
2022-08-05T07:57:13.611Z,42.11
2022-08-05T07:59:38.176Z,42.01
2022-08-05T08:02:17.070Z,42.86
2022-08-05T08:04:49.840Z,43.86
2022-08-05T08:07:22.388Z,43.83
2022-08-05T08:09:52.618Z,41.19
2022-08-05T08:12:34.993Z,42.73
2022-08-05T08:15:15.830Z,42.96
2022-08-05T08:17:52.714Z,43.63
2022-08-05T08:21:00.126Z,44.09
2022-08-05T08:23:11.683Z,41.06
2022-08-05T08:26:00.048Z,39.61
2022-08-05T08:28:36.445Z,41.18
2022-08-05T08:31:05.811Z,40.30
2022-08-05T08:33:37.894Z,39.48
2022-08-05T08:36:38.800Z,40.03
2022-08-05T08:38:56.950Z,41.71
2022-08-05T08:41:50.798Z,42.76
2022-08-05T08:45:23.704Z,41.92
2022-08-05T08:47:22.334Z,43.46
2022-08-05T08:50:07.691Z,42.93
2022-08-05T08:52:53.443Z,39.93
2022-08-05T08:56:02.035Z,43.05
2022-08-05T08:58:15.222Z,44.49
2022-08-05T09:00:44.710Z,41.85
2022-08-05T09:03:16.332Z,38.83
2022-08-05T09:06:08.053Z,36.92
2022-08-05T09:08:40.210Z,35.54
2022-08-05T09:11:12.253Z,37.00
2022-08-05T09:14:10.112Z,37.64
2022-08-05T09:16:31.731Z,38.66
2022-08-05T09:18:59.729Z,41.56
2022-08-05T09:22:25.078Z,42.39
2022-08-05T09:24:18.086Z,41.90
2022-08-05T09:26:51.851Z,40.72
2022-08-05T09:29:20.892Z,39.11
2022-08-05T09:32:51.273Z,39.55
2022-08-05T09:35:00.147Z,39.56
2022-08-05T09:38:12.713Z,39.76
2022-08-05T09:40:36.695Z,40.46
2022-08-05T09:43:08.407Z,40.37
2022-08-05T09:46:06.672Z,40.95
2022-08-05T09:48:28.432Z,44.37
2022-08-05T09:50:59.530Z,45.78
2022-08-05T09:53:53.423Z,45.76
2022-08-05T09:56:26.988Z,47.42
2022-08-05T09:58:59.730Z,45.83
2022-08-05T10:01:31.698Z,41.80
2022-08-05T10:04:04.531Z,40.81
2022-08-05T10:06:40.969Z,41.95
2022-08-05T10:09:27.748Z,41.24
2022-08-05T10:11:57.363Z,42.57
2022-08-05T10:14:28.561Z,42.46
2022-08-05T10:17:38.006Z,44.57
2022-08-05T10:20:10.892Z,47.30
2022-08-05T10:22:43.033Z,47.83
2022-08-05T10:25:18.871Z,46.07
2022-08-05T10:28:13.057Z,46.58
2022-08-05T10:32:48.751Z,44.55
2022-08-05T10:33:28.811Z,45.60
2022-08-05T10:36:00.005Z,43.92
2022-08-05T10:38:33.134Z,43.73
2022-08-05T10:41:13.650Z,43.59
2022-08-05T10:43:52.485Z,42.76
2022-08-05T10:46:23.926Z,44.29
2022-08-05T10:49:02.717Z,43.84
2022-08-05T10:51:48.622Z,42.40
2022-08-05T10:54:47.201Z,41.54
2022-08-05T10:57:33.975Z,42.53
2022-08-05T11:00:19.030Z,40.57
2022-08-05T11:03:23.545Z,40.85
2022-08-05T11:06:15.792Z,42.64
2022-08-05T11:09:17.025Z,44.81
2022-08-05T11:11:53.151Z,45.17
2022-08-05T11:14:57.524Z,43.95
2022-08-05T11:17:57.778Z,44.20
2022-08-05T11:20:46.657Z,43.80
2022-08-05T11:24:02.290Z,42.39
2022-08-05T11:26:28.503Z,41.24
2022-08-05T11:29:11.472Z,42.37
2022-08-05T11:31:57.405Z,43.19
2022-08-05T11:34:47.564Z,43.47
2022-08-05T11:38:28.524Z,41.38
2022-08-05T11:41:54.673Z,40.92
2022-08-05T11:44:08.326Z,39.59
2022-08-05T11:47:10.314Z,40.46
2022-08-05T11:49:28.414Z,39.96
2022-08-05T11:51:57.305Z,40.10
2022-08-05T11:54:33.131Z,41.96
2022-08-05T11:57:24.522Z,41.85
2022-08-05T11:59:53.814Z,41.30
2022-08-05T12:02:30.381Z,39.32
2022-08-05T12:05:07.405Z,39.27
2022-08-05T12:08:03.519Z,39.64
2022-08-05T12:10:43.533Z,39.37
2022-08-05T12:13:17.368Z,38.80
2022-08-05T12:15:56.334Z,38.14
2022-08-05T12:18:33.009Z,38.19
2022-08-05T12:21:12.532Z,39.18
2022-08-05T12:23:43.163Z,38.92
2022-08-05T12:26:11.319Z,39.15
2022-08-05T12:28:39.777Z,39.18
2022-08-05T12:31:08.311Z,38.03
2022-08-05T12:33:38.807Z,38.72
2022-08-05T12:36:09.105Z,38.97
2022-08-05T12:38:41.319Z,38.59
2022-08-05T12:41:13.280Z,38.52
2022-08-05T12:43:56.784Z,38.03
2022-08-05T12:46:29.525Z,37.46
2022-08-05T12:49:01.140Z,37.37
2022-08-05T12:52:14.426Z,36.92
2022-08-05T12:54:38.370Z,36.88
2022-08-05T12:57:09.618Z,36.20
2022-08-05T13:00:09.048Z,35.48
2022-08-05T13:02:39.862Z,35.48
2022-08-05T13:05:12.574Z,35.24
2022-08-05T13:07:59.839Z,35.31
2022-08-05T13:10:33.091Z,35.38
2022-08-05T13:13:01.064Z,35.30
2022-08-05T13:15:41.183Z,35.22
2022-08-05T13:18:10.569Z,35.17
2022-08-05T13:20:40.200Z,34.75
2022-08-05T13:23:08.543Z,34.93
2022-08-05T13:25:58.860Z,34.97
2022-08-05T13:28:27.203Z,35.17
2022-08-05T13:30:55.495Z,34.91
2022-08-05T13:34:21.828Z,34.73
2022-08-05T13:36:14.519Z,34.33
2022-08-05T13:38:45.291Z,34.58
2022-08-05T13:41:22.538Z,34.58
2022-08-05T13:43:55.138Z,34.72
2022-08-05T13:46:37.896Z,34.64
2022-08-05T13:49:12.023Z,34.80
2022-08-05T13:51:46.050Z,34.75
2022-08-05T13:54:16.538Z,34.78
2022-08-05T13:56:50.672Z,34.85
2022-08-05T13:59:24.085Z,35.06
2022-08-05T14:01:57.968Z,34.96
2022-08-05T14:04:49.660Z,34.82
2022-08-05T14:07:25.398Z,34.80
2022-08-05T14:10:09.480Z,34.62
2022-08-05T14:12:42.626Z,34.50
2022-08-05T14:16:08.069Z,34.73
2022-08-05T14:18:00.667Z,34.61
2022-08-05T14:20:29.602Z,34.19
2022-08-05T14:22:58.500Z,34.05
2022-08-05T14:25:27.951Z,34.09
2022-08-05T14:27:58.444Z,34.01
2022-08-05T14:30:27.805Z,33.70
2022-08-05T14:32:56.743Z,33.51
2022-08-05T14:35:37.484Z,33.43
2022-08-05T14:38:32.168Z,33.70
2022-08-05T14:41:06.072Z,33.72
2022-08-05T14:43:59.296Z,33.95
2022-08-05T14:46:28.913Z,33.90
2022-08-05T14:48:59.691Z,33.78
2022-08-05T14:51:35.841Z,33.62
2022-08-05T14:54:26.114Z,33.86
2022-08-05T14:56:54.744Z,33.99
2022-08-05T14:59:25.236Z,33.90
2022-08-05T15:01:58.166Z,33.78
2022-08-05T15:04:28.898Z,33.78
2022-08-05T15:06:57.746Z,33.56
2022-08-05T15:09:52.367Z,33.75
2022-08-05T15:12:26.887Z,33.94
2022-08-05T15:14:58.410Z,33.76
2022-08-05T15:17:45.961Z,33.81
2022-08-05T15:20:19.038Z,33.49
2022-08-05T15:22:54.171Z,33.00
2022-08-05T15:25:51.637Z,33.00
2022-08-05T15:28:14.235Z,32.57
2022-08-05T15:30:45.881Z,32.47
2022-08-05T15:34:04.023Z,32.61
2022-08-05T15:36:04.181Z,32.24
2022-08-05T15:38:36.615Z,32.64
2022-08-05T15:41:22.565Z,32.71
2022-08-05T15:43:54.472Z,32.81
2022-08-05T15:46:25.268Z,32.76
2022-08-05T15:48:58.841Z,32.35
2022-08-05T15:52:13.487Z,32.13
2022-08-05T15:54:19.050Z,31.89
2022-08-05T15:56:47.574Z,31.77
2022-08-05T15:59:21.638Z,31.70
2022-08-05T16:01:53.710Z,31.59
2022-08-05T16:04:25.565Z,31.75
2022-08-05T16:06:55.474Z,31.42
2022-08-05T16:09:24.778Z,31.35
2022-08-05T16:11:54.097Z,31.37
2022-08-05T16:14:22.518Z,31.46
2022-08-05T16:16:52.548Z,31.62
2022-08-05T16:20:03.640Z,31.45
2022-08-05T16:22:10.769Z,31.49
2022-08-05T16:24:51.764Z,31.32
2022-08-05T16:27:47.206Z,31.24
2022-08-05T16:30:23.206Z,30.86
2022-08-05T16:32:56.172Z,30.66
2022-08-05T16:35:27.598Z,30.43
2022-08-05T16:38:13.676Z,30.39
2022-08-05T16:40:51.881Z,30.30
2022-08-05T16:43:24.197Z,30.17
2022-08-05T16:46:06.893Z,30.20
2022-08-05T16:48:43.649Z,30.08
2022-08-05T16:51:11.960Z,30.06
2022-08-05T16:54:05.770Z,29.93
2022-08-05T16:56:33.620Z,29.67
2022-08-05T16:59:08.515Z,29.44
2022-08-05T17:01:54.044Z,29.37
2022-08-05T17:04:27.648Z,29.03
2022-08-05T17:07:00.454Z,28.85
2022-08-05T17:09:30.030Z,28.79
2022-08-05T17:11:59.489Z,28.88
2022-08-05T17:14:36.773Z,28.67
2022-08-05T17:17:09.468Z,28.68
2022-08-05T17:19:46.407Z,28.54
2022-08-05T17:22:24.723Z,28.72
2022-08-05T17:24:57.563Z,28.73
2022-08-05T17:27:27.475Z,28.82
2022-08-05T17:30:02.793Z,28.82
2022-08-05T17:32:31.091Z,28.77
2022-08-05T17:35:04.358Z,28.86
2022-08-05T17:37:40.825Z,28.71
2022-08-05T17:40:12.788Z,28.56
2022-08-05T17:42:49.702Z,28.75
2022-08-05T17:45:21.815Z,28.49
2022-08-05T17:47:54.553Z,28.64
2022-08-05T17:50:30.141Z,28.48
2022-08-05T17:53:00.489Z,28.29
2022-08-05T17:55:37.257Z,28.14
2022-08-05T17:58:09.805Z,28.22
2022-08-05T18:00:44.628Z,28.31
2022-08-05T18:06:11.775Z,28.10
2022-08-05T18:08:52.603Z,28.13
2022-08-05T18:11:24.010Z,28.20
2022-08-05T18:14:03.452Z,28.36
2022-08-05T18:16:32.523Z,28.29
2022-08-05T18:19:00.694Z,28.55
2022-08-05T18:22:08.474Z,28.39
2022-08-05T18:24:18.664Z,28.29
2022-08-05T18:26:49.091Z,28.28
2022-08-05T18:29:17.496Z,28.18
2022-08-05T18:32:05.969Z,28.02
2022-08-05T18:34:41.122Z,28.11
2022-08-05T18:37:16.931Z,27.88
2022-08-05T18:40:31.228Z,27.85
2022-08-05T18:42:48.693Z,27.89
2022-08-05T18:45:17.027Z,27.85
2022-08-05T18:47:46.422Z,27.66
2022-08-05T18:50:42.374Z,27.78
2022-08-05T18:53:22.203Z,27.84
2022-08-05T18:55:52.633Z,27.33
2022-08-05T18:58:27.134Z,27.25
2022-08-05T19:00:57.901Z,27.30
2022-08-05T19:03:52.682Z,27.17
2022-08-05T19:06:21.655Z,26.95
2022-08-05T19:08:51.813Z,26.71
2022-08-05T19:11:27.890Z,26.28
2022-08-05T19:14:00.912Z,26.08
2022-08-05T19:16:46.603Z,26.07
2022-08-05T19:19:15.602Z,26.03
2022-08-05T19:21:49.976Z,25.96
2022-08-05T19:24:34.488Z,25.36
2022-08-05T19:27:03.993Z,24.33
2022-08-05T19:29:36.385Z,23.44
2022-08-05T19:32:08.539Z,22.89
2022-08-05T19:34:39.687Z,22.66
2022-08-05T19:37:09.984Z,22.59
2022-08-05T19:39:45.966Z,22.36
2022-08-05T19:42:19.512Z,22.02
2022-08-05T19:45:06.113Z,21.60
2022-08-05T19:47:37.178Z,21.37
2022-08-05T19:50:07.718Z,21.41
2022-08-05T19:52:40.260Z,21.32
2022-08-05T19:56:12.511Z,21.33
2022-08-05T19:58:07.124Z,21.31
2022-08-05T20:00:47.196Z,21.14
2022-08-05T20:03:16.118Z,21.30
2022-08-05T20:05:51.257Z,21.26
2022-08-05T20:08:19.963Z,21.16
2022-08-05T20:10:49.927Z,20.96
2022-08-05T20:13:55.011Z,20.85
2022-08-05T20:16:07.959Z,20.70
2022-08-05T20:18:36.920Z,20.73
2022-08-05T20:21:07.703Z,20.63
2022-08-05T20:23:39.585Z,20.68
2022-08-05T20:26:19.143Z,20.68
2022-08-05T20:28:48.792Z,20.45
2022-08-05T20:31:17.046Z,20.48
2022-08-05T20:33:45.932Z,20.43
2022-08-05T20:36:16.385Z,20.35
2022-08-05T20:38:54.497Z,20.41
2022-08-05T20:41:44.211Z,20.43
2022-08-05T20:44:18.707Z,20.18
2022-08-05T20:46:58.657Z,20.12
2022-08-05T20:49:26.972Z,20.09
2022-08-05T20:51:55.069Z,20.04
2022-08-05T20:54:24.643Z,20.02
2022-08-05T20:56:54.349Z,20.07
2022-08-05T20:59:26.407Z,20.14
2022-08-05T21:01:57.997Z,20.07
2022-08-05T21:04:27.343Z,19.75
2022-08-05T21:06:56.000Z,19.57
2022-08-05T21:09:24.370Z,19.37
2022-08-05T21:12:08.914Z,19.44
2022-08-05T21:14:39.967Z,19.46
2022-08-05T21:17:08.027Z,19.61
2022-08-05T21:19:46.726Z,19.59
2022-08-05T21:22:17.798Z,19.49
2022-08-05T21:24:48.762Z,19.48
2022-08-05T21:27:25.381Z,19.47
2022-08-05T21:29:56.625Z,19.11
2022-08-05T21:32:26.900Z,18.99
2022-08-05T21:35:08.724Z,18.93
2022-08-05T21:37:52.641Z,18.76
2022-08-05T21:40:22.187Z,18.78
2022-08-05T21:42:53.705Z,18.73
2022-08-05T21:45:25.104Z,18.69
2022-08-05T21:48:10.248Z,18.55
2022-08-05T21:50:42.046Z,18.46
2022-08-05T21:53:21.225Z,18.44
2022-08-05T21:56:05.312Z,18.31
2022-08-05T21:58:36.601Z,18.26
2022-08-05T22:01:05.613Z,18.28
2022-08-05T22:03:48.741Z,18.23
2022-08-05T22:06:35.324Z,18.28
2022-08-05T22:09:14.782Z,18.30
2022-08-05T22:11:43.610Z,18.31
2022-08-05T22:14:37.337Z,18.28
2022-08-05T22:17:07.555Z,18.38
2022-08-05T22:20:02.662Z,18.34
2022-08-05T22:22:27.946Z,18.48
2022-08-05T22:25:18.000Z,18.38
2022-08-05T22:28:09.384Z,18.33
2022-08-05T22:30:43.994Z,18.31
2022-08-05T22:33:56.303Z,18.28
2022-08-05T22:36:14.443Z,18.11
2022-08-05T22:38:42.984Z,18.05
2022-08-05T22:41:10.983Z,18.10
2022-08-05T22:43:40.619Z,18.02
2022-08-05T22:46:13.779Z,18.08
2022-08-05T22:48:51.812Z,18.07
2022-08-05T22:51:23.356Z,17.95
2022-08-05T22:54:07.995Z,17.82
2022-08-05T22:56:36.341Z,17.79
2022-08-05T22:59:45.009Z,17.78
2022-08-05T23:02:05.453Z,17.87
2022-08-05T23:04:34.850Z,17.80
2022-08-05T23:07:03.067Z,17.74
2022-08-05T23:09:58.152Z,17.77
2022-08-05T23:12:24.031Z,17.73
2022-08-05T23:14:52.492Z,17.78
2022-08-05T23:17:32.706Z,17.79
2022-08-05T23:20:16.401Z,17.77
2022-08-05T23:22:47.197Z,17.83
2022-08-05T23:25:52.435Z,17.82
2022-08-05T23:28:06.742Z,17.90
2022-08-05T23:30:40.585Z,17.94
2022-08-05T23:33:22.564Z,18.08
2022-08-05T23:36:02.200Z,17.95
2022-08-05T23:38:30.593Z,17.77
2022-08-05T23:40:58.441Z,17.40
2022-08-05T23:44:03.045Z,17.11
2022-08-05T23:46:21.336Z,17.00
2022-08-05T23:49:00.068Z,16.89
2022-08-05T23:51:54.834Z,16.84
2022-08-05T23:54:26.487Z,16.73
2022-08-05T23:57:03.742Z,16.66
